Terminal Aerodrome Forecast
Issued by NWS

Current Version | Previous Version | Graphics & Text | Print | Product List | Glossary On
Versions: 1 2 3 4 5 6 7 8 9 10 11 12 13 14 15 16 17 18 19 20 21 22 23 24 25 26 27 28 29 30 31 32 33 34 35 36 37 38 39 40 41 42 43 44
000
FTUS41 KRNK 291723
TAFLWB
TAF
KLWB 291723Z 2918/3018 24007KT P6SM BKN050
     FM300000 22003KT P6SM VCSH SCT050 BKN080
     FM300500 00000KT 4SM BR OVC025
     FM300800 00000KT 1SM BR OVC010
     FM301000 00000KT 1/4SM FG OVC001
     FM301300 24003KT 2SM BR OVC001
     FM301400 24004KT 4SM BR BKN030
     FM301500 24006KT P6SM SCT030 BKN050=

USA.gov is the U.S. government's official web portal to all federal, state and local government web resources and services.